createdAt,value
2018-01-06T00:01:02.750Z,13.40
2018-01-06T00:03:30.153Z,10.27
2018-01-06T00:05:58.367Z,6.67
2018-01-06T00:08:25.773Z,9.43
2018-01-06T00:10:53.185Z,13.20
2018-01-06T00:13:21.367Z,7.63
2018-01-06T00:15:49.574Z,9.60
2018-01-06T00:18:17.018Z,12.63
2018-01-06T00:20:45.189Z,9.77
2018-01-06T00:23:12.621Z,15.33
2018-01-06T00:25:40.031Z,12.73
2018-01-06T00:28:07.461Z,9.77
2018-01-06T00:30:34.880Z,9.83
2018-01-06T00:33:03.074Z,11.47
2018-01-06T00:35:31.278Z,14.87
2018-01-06T00:37:58.756Z,24.10
2018-01-06T00:40:26.149Z,17.83
2018-01-06T00:42:53.561Z,13.83
2018-01-06T00:45:21.733Z,11.50
2018-01-06T00:47:49.958Z,19.97
2018-01-06T00:50:17.368Z,18.73
2018-01-06T00:52:44.790Z,20.27
2018-01-06T00:55:12.266Z,15.77
2018-01-06T00:57:39.672Z,17.80
2018-01-06T01:00:07.098Z,18.90
2018-01-06T01:02:34.517Z,16.83
2018-01-06T01:05:03.441Z,14.67
2018-01-06T01:07:31.609Z,21.20
2018-01-06T01:09:59.781Z,16.77
2018-01-06T01:12:27.189Z,16.33
2018-01-06T01:14:55.361Z,21.63
2018-01-06T01:17:23.543Z,21.77
2018-01-06T01:19:50.967Z,20.17
2018-01-06T01:22:18.370Z,14.73
2018-01-06T01:24:45.774Z,16.03
2018-01-06T01:27:13.184Z,14.80
2018-01-06T01:29:40.602Z,18.10
2018-01-06T01:32:08.785Z,22.53
2018-01-06T01:34:36.963Z,16.60
2018-01-06T01:37:05.176Z,18.60
2018-01-06T01:39:32.573Z,14.70
2018-01-06T01:42:00.007Z,17.63
2018-01-06T01:44:27.497Z,23.37
2018-01-06T01:46:54.946Z,19.63
2018-01-06T01:49:22.354Z,17.87
2018-01-06T01:51:49.857Z,13.90
2018-01-06T01:54:18.126Z,17.23
2018-01-06T01:56:45.550Z,14.13
2018-01-06T01:59:12.961Z,21.50
2018-01-06T02:01:40.373Z,31.20
2018-01-06T02:04:07.777Z,14.50
2018-01-06T02:06:35.214Z,19.83
2018-01-06T02:09:02.630Z,12.43
2018-01-06T02:11:30.051Z,24.97
2018-01-06T02:13:57.472Z,12.97
2018-01-06T02:16:24.908Z,10.73
2018-01-06T02:18:52.329Z,15.73
2018-01-06T02:21:20.518Z,10.40
2018-01-06T02:23:48.728Z,16.20
2018-01-06T02:26:16.886Z,14.30
2018-01-06T02:28:45.086Z,15.50
2018-01-06T02:31:12.498Z,21.83
2018-01-06T02:33:39.931Z,11.73
2018-01-06T02:36:07.330Z,11.47
2018-01-06T02:38:34.867Z,16.60
2018-01-06T02:41:02.355Z,21.20
2018-01-06T02:43:29.815Z,19.63
2018-01-06T02:45:57.202Z,21.40
2018-01-06T02:48:24.618Z,16.83
2018-01-06T02:50:52.938Z,15.20
2018-01-06T02:53:21.081Z,13.87
2018-01-06T02:55:48.494Z,12.27
2018-01-06T02:58:15.910Z,15.43
2018-01-06T03:00:43.314Z,21.60
2018-01-06T03:03:10.718Z,19.07
2018-01-06T03:05:38.185Z,21.50
2018-01-06T03:08:05.621Z,18.33
2018-01-06T03:10:33.025Z,12.90
2018-01-06T03:13:00.466Z,18.47
2018-01-06T03:15:27.887Z,16.90
2018-01-06T03:17:55.403Z,18.80
2018-01-06T03:20:22.892Z,19.60
2018-01-06T03:22:50.336Z,19.50
2018-01-06T03:25:17.750Z,17.70
2018-01-06T03:27:45.218Z,25.73
2018-01-06T03:30:12.643Z,16.90
2018-01-06T03:32:40.047Z,14.13
2018-01-06T03:35:07.455Z,19.73
2018-01-06T03:37:35.626Z,12.30
2018-01-06T03:40:03.802Z,19.67
2018-01-06T03:42:31.342Z,16.73
2018-01-06T03:44:58.798Z,17.40
2018-01-06T03:47:26.193Z,20.23
2018-01-06T03:49:53.613Z,14.90
2018-01-06T03:52:21.790Z,16.50
2018-01-06T03:54:49.978Z,16.00
2018-01-06T03:57:17.457Z,17.07
2018-01-06T03:59:44.870Z,15.40
2018-01-06T04:02:12.283Z,15.60
2018-01-06T04:04:40.478Z,13.63
2018-01-06T04:07:07.902Z,17.47
2018-01-06T04:09:35.314Z,16.60
2018-01-06T04:12:03.609Z,14.43
2018-01-06T04:14:31.111Z,16.40
2018-01-06T04:16:58.526Z,14.47
2018-01-06T04:19:26.742Z,9.77
2018-01-06T04:21:54.153Z,16.87
2018-01-06T04:24:21.576Z,24.33
2018-01-06T04:26:48.981Z,20.33
2018-01-06T04:29:16.421Z,12.10
2018-01-06T04:31:43.830Z,23.63
2018-01-06T04:34:11.260Z,23.37
2018-01-06T04:36:38.672Z,22.03
2018-01-06T04:39:06.089Z,18.17
2018-01-06T04:41:33.509Z,17.40
2018-01-06T04:44:00.924Z,23.67
2018-01-06T04:46:28.358Z,14.90
2018-01-06T04:48:56.549Z,15.10
2018-01-06T04:51:23.951Z,15.63
2018-01-06T04:53:51.361Z,12.53
2018-01-06T04:56:18.766Z,19.00
2018-01-06T04:58:46.187Z,19.90
2018-01-06T05:01:13.609Z,18.60
2018-01-06T05:03:41.020Z,15.87
2018-01-06T05:06:08.438Z,12.00
2018-01-06T05:08:35.894Z,19.73
2018-01-06T05:11:04.106Z,15.80
2018-01-06T05:13:32.285Z,19.63
2018-01-06T05:15:59.697Z,15.93
2018-01-06T05:18:27.103Z,22.43
2018-01-06T05:20:55.278Z,16.03
2018-01-06T05:23:22.682Z,21.93
2018-01-06T05:25:50.151Z,17.53
2018-01-06T05:28:17.558Z,15.13
2018-01-06T05:30:44.993Z,15.07
2018-01-06T05:33:12.400Z,25.33
2018-01-06T05:35:39.925Z,29.00
2018-01-06T05:38:07.398Z,19.90
2018-01-06T05:40:34.868Z,12.83
2018-01-06T05:43:02.270Z,18.87
2018-01-06T05:45:29.677Z,18.23
2018-01-06T05:47:57.850Z,23.97
2018-01-06T05:50:25.257Z,15.00
2018-01-06T05:52:52.722Z,11.30
2018-01-06T05:55:20.169Z,15.83
2018-01-06T05:57:48.364Z,12.47
2018-01-06T06:00:15.838Z,15.67
2018-01-06T06:02:43.253Z,15.00
2018-01-06T06:05:10.682Z,20.43
2018-01-06T06:07:38.086Z,24.47
2018-01-06T06:10:05.519Z,19.33
2018-01-06T06:12:32.920Z,27.10
2018-01-06T06:15:00.343Z,18.57
2018-01-06T06:17:27.745Z,16.47
2018-01-06T06:19:55.145Z,22.53
2018-01-06T06:22:22.559Z,23.33
2018-01-06T06:24:49.966Z,21.40
2018-01-06T06:27:17.389Z,13.40
2018-01-06T06:29:44.850Z,21.47
2018-01-06T06:32:12.269Z,13.70
2018-01-06T06:34:39.792Z,18.20
2018-01-06T06:37:07.221Z,12.27
2018-01-06T06:39:41.689Z,12.70
2018-01-06T06:42:09.103Z,19.27
2018-01-06T06:44:36.532Z,15.37
2018-01-06T06:47:03.933Z,17.67
2018-01-06T06:49:31.380Z,21.10
2018-01-06T06:51:58.802Z,22.53
2018-01-06T06:54:27.032Z,26.33
2018-01-06T06:56:54.499Z,22.00
2018-01-06T06:59:21.909Z,19.93
2018-01-06T07:01:49.324Z,17.37
2018-01-06T07:04:16.727Z,15.50
2018-01-06T07:06:44.156Z,19.03
2018-01-06T07:09:11.605Z,15.03
2018-01-06T07:11:39.149Z,23.33
2018-01-06T07:14:06.527Z,27.33
2018-01-06T07:16:34.054Z,19.10
2018-01-06T07:19:01.469Z,14.47
2018-01-06T07:21:28.895Z,20.67
2018-01-06T07:23:56.353Z,21.53
2018-01-06T07:26:23.881Z,19.60
2018-01-06T07:28:51.262Z,19.70
2018-01-06T07:31:19.503Z,18.13
2018-01-06T07:33:46.908Z,14.20
2018-01-06T07:36:14.323Z,17.63
2018-01-06T07:38:41.735Z,17.10
2018-01-06T07:41:09.154Z,16.27
2018-01-06T07:43:36.565Z,12.90
2018-01-06T07:46:03.988Z,19.10
2018-01-06T07:48:31.422Z,16.30
2018-01-06T07:50:58.937Z,20.30
2018-01-06T07:53:26.345Z,18.57
2018-01-06T07:55:53.788Z,21.87
2018-01-06T07:58:21.197Z,27.33
2018-01-06T08:00:49.429Z,15.93
2018-01-06T08:03:16.844Z,16.27
2018-01-06T08:05:44.481Z,19.17
2018-01-06T08:08:11.938Z,21.57
2018-01-06T08:10:39.398Z,19.40
2018-01-06T08:13:06.869Z,22.63
2018-01-06T08:15:34.278Z,22.70
2018-01-06T08:18:01.688Z,24.93
2018-01-06T08:20:29.889Z,24.70
2018-01-06T08:22:57.358Z,20.20
2018-01-06T08:25:24.767Z,20.30
2018-01-06T08:27:52.178Z,25.23
2018-01-06T08:30:20.351Z,21.37
2018-01-06T08:32:47.760Z,22.60
2018-01-06T08:35:15.213Z,26.60
2018-01-06T08:37:42.632Z,19.30
2018-01-06T08:40:10.801Z,24.00
2018-01-06T08:42:38.233Z,21.00
2018-01-06T08:45:06.386Z,22.53
2018-01-06T08:47:33.902Z,20.70
2018-01-06T08:50:01.330Z,20.43
2018-01-06T08:52:28.741Z,23.50
2018-01-06T08:54:56.146Z,17.77
2018-01-06T08:57:23.682Z,19.47
2018-01-06T08:59:51.862Z,29.30
2018-01-06T09:02:19.293Z,17.60
2018-01-06T09:04:46.703Z,20.20
2018-01-06T09:07:14.118Z,25.07
2018-01-06T09:09:41.533Z,22.90
2018-01-06T09:12:08.943Z,21.97
2018-01-06T09:14:36.358Z,19.67
2018-01-06T09:17:04.549Z,19.23
2018-01-06T09:19:31.953Z,20.57
2018-01-06T09:21:59.382Z,22.00
2018-01-06T09:24:26.796Z,27.50
2018-01-06T09:26:54.217Z,23.50
2018-01-06T09:29:21.648Z,21.70
2018-01-06T09:31:49.055Z,31.87
2018-01-06T09:34:16.485Z,23.67
2018-01-06T09:36:43.902Z,19.60
2018-01-06T09:39:11.314Z,23.53
2018-01-06T09:41:38.729Z,21.17
2018-01-06T09:44:06.138Z,25.83
2018-01-06T09:46:33.554Z,22.20
2018-01-06T09:49:01.762Z,18.80
2018-01-06T09:51:29.353Z,23.90
2018-01-06T09:53:56.737Z,19.70
2018-01-06T09:56:24.158Z,24.17
2018-01-06T09:58:51.565Z,24.13
2018-01-06T10:01:19.025Z,22.33
2018-01-06T10:03:46.445Z,25.00
2018-01-06T10:06:14.634Z,33.30
2018-01-06T10:08:42.066Z,23.30
2018-01-06T10:11:09.500Z,21.67
2018-01-06T10:13:36.907Z,21.43
2018-01-06T10:16:04.342Z,29.10
2018-01-06T10:18:31.816Z,19.80
2018-01-06T10:20:59.229Z,16.60
2018-01-06T10:23:26.894Z,22.50
2018-01-06T10:25:55.079Z,19.10
2018-01-06T10:28:22.481Z,24.80
2018-01-06T10:30:49.929Z,22.23
2018-01-06T10:33:18.118Z,18.93
2018-01-06T10:35:46.294Z,16.10
2018-01-06T10:38:13.834Z,19.93
2018-01-06T10:40:41.242Z,27.33
2018-01-06T10:43:09.433Z,21.47
2018-01-06T10:45:37.745Z,21.73
2018-01-06T10:48:05.929Z,24.37
2018-01-06T10:50:33.327Z,23.03
2018-01-06T10:53:00.777Z,21.13
2018-01-06T10:55:28.182Z,18.93
2018-01-06T10:57:55.589Z,25.60
2018-01-06T11:00:23.014Z,25.47
2018-01-06T11:02:50.541Z,26.70
2018-01-06T11:05:18.726Z,18.20
2018-01-06T11:07:46.204Z,14.93
2018-01-06T11:10:13.694Z,18.33
2018-01-06T11:12:41.117Z,16.80
2018-01-06T11:15:08.530Z,20.20
2018-01-06T11:17:36.038Z,20.63
2018-01-06T11:20:03.431Z,25.40
2018-01-06T11:22:30.842Z,17.37
2018-01-06T11:24:58.262Z,17.67
2018-01-06T11:27:25.693Z,20.10
2018-01-06T11:29:53.101Z,14.30
2018-01-06T11:32:20.519Z,13.63
2018-01-06T11:34:48.045Z,16.70
2018-01-06T11:37:15.519Z,16.67
2018-01-06T11:39:42.922Z,17.37
2018-01-06T11:42:10.349Z,14.93
2018-01-06T11:44:38.165Z,17.33
2018-01-06T11:47:05.571Z,25.03
2018-01-06T11:49:33.754Z,26.00
2018-01-06T11:52:01.933Z,23.07
2018-01-06T11:54:30.109Z,17.43
2018-01-06T11:56:57.552Z,36.57
2018-01-06T11:59:24.961Z,14.23
2018-01-06T12:01:53.284Z,20.73
2018-01-06T12:04:20.750Z,22.00
2018-01-06T12:06:48.203Z,21.13
2018-01-06T12:09:16.381Z,24.03
2018-01-06T12:11:44.598Z,23.10
2018-01-06T12:14:12.059Z,17.10
2018-01-06T12:16:39.480Z,21.77
2018-01-06T12:19:06.895Z,16.73
2018-01-06T12:21:34.355Z,20.47
2018-01-06T12:24:01.845Z,23.57
2018-01-06T12:26:29.269Z,21.77
2018-01-06T12:28:56.699Z,20.53
2018-01-06T12:31:24.136Z,17.07
2018-01-06T12:33:52.314Z,20.17
2018-01-06T12:36:19.789Z,31.37
2018-01-06T12:38:47.205Z,20.43
2018-01-06T12:41:14.618Z,20.03
2018-01-06T12:43:42.064Z,20.77
2018-01-06T12:46:10.242Z,24.03
2018-01-06T12:48:38.423Z,19.20
2018-01-06T12:51:05.839Z,22.30
2018-01-06T12:53:33.324Z,19.10
2018-01-06T12:56:00.713Z,24.13
2018-01-06T12:58:28.258Z,23.00
2018-01-06T13:00:55.662Z,24.43
2018-01-06T13:03:23.173Z,20.80
2018-01-06T13:05:50.596Z,28.57
2018-01-06T13:08:18.003Z,20.27
2018-01-06T13:10:45.416Z,19.37
2018-01-06T13:13:12.825Z,24.00
2018-01-06T13:15:40.999Z,22.40
2018-01-06T13:18:09.221Z,22.03
2018-01-06T13:20:36.678Z,26.87
2018-01-06T13:23:04.117Z,22.53
2018-01-06T13:25:31.628Z,33.80
2018-01-06T13:27:59.813Z,29.30
2018-01-06T13:30:28.004Z,29.53
2018-01-06T13:32:55.419Z,27.50
2018-01-06T13:35:22.821Z,25.60
2018-01-06T13:37:50.249Z,22.80
2018-01-06T13:40:17.660Z,23.73
2018-01-06T13:42:45.066Z,33.10
2018-01-06T13:45:12.478Z,25.33
2018-01-06T13:47:40.694Z,35.77
2018-01-06T13:50:08.177Z,28.33
2018-01-06T13:52:35.618Z,33.97
2018-01-06T13:55:03.104Z,38.30
2018-01-06T13:57:30.511Z,30.73
2018-01-06T13:59:57.935Z,34.70
2018-01-06T14:02:25.342Z,34.83
2018-01-06T14:04:52.756Z,26.33
2018-01-06T14:07:20.241Z,28.70
2018-01-06T14:09:47.715Z,29.10
2018-01-06T14:12:15.130Z,31.73
2018-01-06T14:14:42.541Z,34.53
2018-01-06T14:17:09.966Z,32.07
2018-01-06T14:19:37.442Z,27.17
2018-01-06T14:22:04.842Z,34.50
2018-01-06T14:24:32.254Z,28.60
2018-01-06T14:26:59.667Z,34.70
2018-01-06T14:29:27.103Z,25.83
2018-01-06T14:31:54.532Z,33.20
2018-01-06T14:34:21.958Z,34.13
2018-01-06T14:36:50.874Z,31.40
2018-01-06T14:39:18.295Z,37.20
2018-01-06T14:41:45.809Z,38.97
2018-01-06T14:44:13.274Z,32.97
2018-01-06T14:46:41.457Z,42.30
2018-01-06T14:49:09.671Z,30.50
2018-01-06T14:51:37.293Z,32.23
2018-01-06T14:54:04.678Z,37.63
2018-01-06T14:56:32.854Z,32.63
2018-01-06T14:59:00.269Z,35.00
2018-01-06T15:01:27.728Z,30.63
2018-01-06T15:03:55.191Z,32.73
2018-01-06T15:06:23.339Z,37.17
2018-01-06T15:08:50.757Z,34.40
2018-01-06T15:11:18.167Z,47.23
2018-01-06T15:13:45.581Z,29.17
2018-01-06T15:16:13.018Z,39.73
2018-01-06T15:18:40.409Z,40.67
2018-01-06T15:21:07.896Z,35.53
2018-01-06T15:23:35.309Z,36.87
2018-01-06T15:26:02.823Z,35.80
2018-01-06T15:28:30.256Z,38.47
2018-01-06T15:30:57.758Z,39.90
2018-01-06T15:33:25.185Z,35.40
2018-01-06T15:35:52.600Z,34.23
2018-01-06T15:38:20.061Z,37.00
2018-01-06T15:40:47.470Z,40.90
2018-01-06T15:43:14.885Z,34.63
2018-01-06T15:45:43.074Z,44.43
2018-01-06T15:48:10.500Z,42.00
2018-01-06T15:50:37.935Z,37.70
2018-01-06T15:53:05.360Z,42.00
2018-01-06T15:55:32.854Z,38.13
2018-01-06T15:58:00.274Z,37.63
2018-01-06T16:00:27.677Z,41.60
2018-01-06T16:02:55.888Z,43.87
2018-01-06T16:05:23.713Z,45.57
2018-01-06T16:07:51.237Z,47.00
2018-01-06T16:10:18.703Z,43.27
2018-01-06T16:12:46.182Z,43.90
2018-01-06T16:15:13.658Z,46.80
2018-01-06T16:17:41.046Z,35.33
2018-01-06T16:20:08.480Z,49.93
2018-01-06T16:22:35.943Z,39.87
2018-01-06T16:25:03.353Z,51.50
2018-01-06T16:27:30.799Z,45.73
2018-01-06T16:29:58.189Z,37.07
2018-01-06T16:32:25.593Z,46.27
2018-01-06T16:34:53.912Z,40.40
2018-01-06T16:37:22.066Z,47.70
2018-01-06T16:39:50.238Z,43.60
2018-01-06T16:42:17.641Z,46.83
2018-01-06T16:44:45.062Z,50.13
2018-01-06T16:47:12.507Z,43.10
2018-01-06T16:49:39.926Z,44.63
2018-01-06T16:52:08.169Z,51.73
2018-01-06T16:54:35.569Z,51.63
2018-01-06T16:57:02.978Z,51.80
2018-01-06T16:59:30.390Z,50.50
2018-01-06T17:01:57.913Z,46.13
2018-01-06T17:04:25.338Z,48.63
2018-01-06T17:06:52.738Z,59.23
2018-01-06T17:09:20.165Z,55.30
2018-01-06T17:11:47.597Z,53.73
2018-01-06T17:14:15.000Z,57.33
2018-01-06T17:16:42.417Z,56.40
2018-01-06T17:19:09.890Z,58.43
2018-01-06T17:21:37.297Z,50.73
2018-01-06T17:24:04.706Z,57.70
2018-01-06T17:26:32.197Z,54.87
2018-01-06T17:28:59.675Z,52.67
2018-01-06T17:31:27.125Z,55.53
2018-01-06T17:33:54.804Z,64.60
2018-01-06T17:36:22.209Z,53.17
2018-01-06T17:38:49.640Z,48.57
2018-01-06T17:41:17.121Z,55.47
2018-01-06T17:43:44.514Z,53.50
2018-01-06T17:46:11.969Z,51.93
2018-01-06T17:48:39.432Z,52.37
2018-01-06T17:51:07.601Z,59.03
2018-01-06T17:53:35.867Z,57.00
2018-01-06T17:56:03.966Z,84.20
2018-01-06T17:58:31.387Z,52.30
2018-01-06T18:00:58.795Z,64.50
2018-01-06T18:03:26.276Z,54.73
2018-01-06T18:05:53.679Z,57.93
2018-01-06T18:08:21.103Z,57.33
2018-01-06T18:10:48.590Z,62.33
2018-01-06T18:13:15.993Z,62.70
2018-01-06T18:15:43.411Z,61.97
2018-01-06T18:18:10.878Z,55.47
2018-01-06T18:20:38.358Z,48.07
2018-01-06T18:23:05.773Z,63.67
2018-01-06T18:25:34.736Z,53.70
2018-01-06T18:28:02.154Z,58.43
2018-01-06T18:30:29.664Z,55.50
2018-01-06T18:32:57.074Z,53.83
2018-01-06T18:35:24.606Z,58.70
2018-01-06T18:37:52.769Z,62.53
2018-01-06T18:40:20.259Z,56.80
2018-01-06T18:42:47.666Z,60.20
2018-01-06T18:45:15.190Z,51.03
2018-01-06T18:47:42.603Z,49.27
2018-01-06T18:50:10.804Z,52.63
2018-01-06T18:52:38.313Z,27.70
2018-01-06T18:55:05.737Z,38.83
2018-01-06T18:57:33.360Z,36.83
2018-01-06T19:00:01.534Z,30.77
2018-01-06T19:02:28.950Z,22.67
2018-01-06T19:04:56.358Z,27.87
2018-01-06T19:07:24.557Z,24.10
2018-01-06T19:09:52.036Z,22.40
2018-01-06T19:12:19.444Z,21.60
2018-01-06T19:14:46.858Z,20.80
2018-01-06T19:17:14.313Z,17.33
2018-01-06T19:19:41.741Z,20.73
2018-01-06T19:22:09.181Z,23.80
2018-01-06T19:24:36.589Z,20.47
2018-01-06T19:27:04.036Z,21.00
2018-01-06T19:29:31.453Z,17.10
2018-01-06T19:31:58.962Z,15.93
2018-01-06T19:34:26.378Z,16.37
2018-01-06T19:36:54.550Z,13.73
2018-01-06T19:39:22.730Z,13.67
2018-01-06T19:41:50.154Z,15.23
2018-01-06T19:44:17.578Z,17.50
2018-01-06T19:46:45.002Z,19.67
2018-01-06T19:49:12.428Z,13.93
2018-01-06T19:51:40.611Z,16.03
2018-01-06T19:54:08.028Z,15.10
2018-01-06T19:56:35.442Z,14.67
2018-01-06T19:59:02.852Z,15.60
2018-01-06T20:01:30.337Z,17.83
2018-01-06T20:03:57.791Z,19.75
2018-01-06T20:06:25.260Z,19.20
2018-01-06T20:08:52.676Z,22.10
2018-01-06T20:11:20.110Z,19.03
2018-01-06T20:13:47.572Z,19.80
2018-01-06T20:16:14.972Z,16.10
2018-01-06T20:18:43.888Z,17.27
2018-01-06T20:21:11.313Z,19.93
2018-01-06T20:23:38.760Z,18.00
2018-01-06T20:26:06.229Z,20.20
2018-01-06T20:28:33.708Z,20.93
2018-01-06T20:31:01.118Z,20.30
2018-01-06T20:33:29.310Z,21.37
2018-01-06T20:35:57.489Z,21.65
2018-01-06T20:38:25.029Z,21.07
2018-01-06T20:40:52.441Z,19.17
2018-01-06T20:43:19.942Z,20.20
2018-01-06T20:45:47.366Z,20.30
2018-01-06T20:48:14.821Z,25.93
2018-01-06T20:50:42.254Z,21.90
2018-01-06T20:53:09.674Z,24.33
2018-01-06T20:55:37.181Z,23.60
2018-01-06T20:58:04.667Z,19.55
2018-01-06T21:00:32.077Z,22.43
2018-01-06T21:02:59.500Z,25.98
2018-01-06T21:05:26.970Z,24.50
2018-01-06T21:07:54.439Z,21.75
2018-01-06T21:10:21.901Z,23.95
2018-01-06T21:12:49.374Z,24.37
2018-01-06T21:15:16.793Z,23.65
2018-01-06T21:17:44.317Z,20.77
2018-01-06T21:20:11.737Z,26.37
2018-01-06T21:22:40.679Z,21.27
2018-01-06T21:25:08.108Z,20.37
2018-01-06T21:27:35.521Z,21.83
2018-01-06T21:30:02.986Z,23.52
2018-01-06T21:32:30.396Z,26.87
2018-01-06T21:34:57.822Z,15.10
2018-01-06T21:37:25.281Z,19.05
2018-01-06T21:39:52.772Z,19.87
2018-01-06T21:42:20.174Z,18.60
2018-01-06T21:44:47.594Z,18.90
2018-01-06T21:47:15.001Z,16.60
2018-01-06T21:49:42.409Z,16.58
2018-01-06T21:52:09.829Z,13.13
2018-01-06T21:54:37.267Z,11.45
2018-01-06T21:57:04.706Z,10.23
2018-01-06T21:59:32.887Z,12.57
2018-01-06T22:02:00.396Z,10.43
2018-01-06T22:04:27.853Z,10.40
2018-01-06T22:06:55.278Z,11.57
2018-01-06T22:09:22.693Z,13.55
2018-01-06T22:11:50.125Z,13.32
2018-01-06T22:14:17.555Z,9.82
2018-01-06T22:16:44.974Z,8.57
2018-01-06T22:19:13.157Z,14.30
2018-01-06T22:21:41.346Z,11.18
2018-01-06T22:24:09.546Z,8.52
2018-01-06T22:26:37.034Z,9.63
2018-01-06T22:29:04.506Z,10.80
2018-01-06T22:31:31.905Z,12.88
2018-01-06T22:33:59.337Z,15.95
2018-01-06T22:36:26.753Z,10.38
2018-01-06T22:38:54.177Z,10.52
2018-01-06T22:41:21.583Z,16.77
2018-01-06T22:43:49.125Z,11.60
2018-01-06T22:46:16.582Z,8.70
2018-01-06T22:48:44.011Z,6.68
2018-01-06T22:51:12.176Z,7.93
2018-01-06T22:53:40.359Z,8.20
2018-01-06T22:56:07.785Z,8.90
2018-01-06T22:58:35.249Z,12.63
2018-01-06T23:01:02.702Z,13.05
2018-01-06T23:03:30.129Z,10.63
2018-01-06T23:05:57.529Z,8.65
2018-01-06T23:08:25.738Z,10.18
2018-01-06T23:10:53.153Z,10.40
2018-01-06T23:13:20.569Z,11.27
2018-01-06T23:15:48.052Z,9.20
2018-01-06T23:18:16.242Z,7.70
2018-01-06T23:20:43.716Z,11.43
2018-01-06T23:23:11.274Z,9.77
2018-01-06T23:25:38.683Z,8.90
2018-01-06T23:28:06.089Z,8.85
2018-01-06T23:30:34.314Z,11.05
2018-01-06T23:33:01.738Z,11.25
2018-01-06T23:35:29.921Z,10.23
2018-01-06T23:37:58.137Z,12.73
2018-01-06T23:40:25.601Z,11.10
2018-01-06T23:42:53.009Z,14.07
2018-01-06T23:45:20.432Z,8.25
2018-01-06T23:47:47.907Z,12.02
2018-01-06T23:50:15.317Z,12.73
2018-01-06T23:52:42.732Z,11.55
2018-01-06T23:55:10.207Z,12.60
2018-01-06T23:57:37.613Z,15.40
